Time;durP1;ratioP1;P1;durP2;ratioP2;P2;SDS_P1;SDS_P2;PMS_P1;PMS_P2;Temp;Humidity;BMP_temperature;BMP_pressure;BME280_temperature;BME280_humidity;BME280_pressure;Samples;Min_cycle;Max_cycle;Signal;HPM_P1;HPM_P2
2023/12/03 00:00:44;;;;;;;81.80;42.00;;;;;;;-2.69;100.00;98431.23;109562;1251;59026;-73
2023/12/03 00:03:31;;;;;;;78.00;40.70;;;;;;;-2.67;100.00;98431.02;109523;1251;59028;-73
2023/12/03 00:05:58;;;;;;;68.80;36.30;;;;;;;-2.65;100.00;98428.38;109556;1251;67039;-74
2023/12/03 00:08:24;;;;;;;83.20;41.90;;;;;;;-2.65;100.00;98433.94;109616;1251;61098;-73
2023/12/03 00:10:51;;;;;;;82.40;40.10;;;;;;;-2.66;100.00;98430.47;109551;1251;64170;-73
2023/12/03 00:13:18;;;;;;;85.50;43.50;;;;;;;-2.67;100.00;98431.19;109536;1251;58911;-73
2023/12/03 00:15:44;;;;;;;84.70;43.00;;;;;;;-2.67;100.00;98428.77;109587;1251;58981;-74
2023/12/03 00:18:12;;;;;;;89.20;43.30;;;;;;;-2.66;100.00;98429.44;109594;1251;67325;-73
2023/12/03 00:20:38;;;;;;;83.30;42.60;;;;;;;-2.65;100.00;98437.77;108283;1250;1002379;-74
2023/12/03 00:23:05;;;;;;;88.10;44.40;;;;;;;-2.66;100.00;98443.00;108012;1251;1002584;-73
2023/12/03 00:25:31;;;;;;;78.80;42.00;;;;;;;-2.66;100.00;98444.74;108800;1251;1002423;-74
2023/12/03 00:27:58;;;;;;;79.30;43.50;;;;;;;-2.65;100.00;98442.98;108827;1251;1002864;-73
2023/12/03 00:30:24;;;;;;;82.90;43.70;;;;;;;-2.63;100.00;98443.62;108805;1251;1002642;-73
2023/12/03 00:32:51;;;;;;;76.20;41.60;;;;;;;-2.61;100.00;98449.85;109579;1251;61535;-74
2023/12/03 00:35:18;;;;;;;74.90;40.70;;;;;;;-2.62;100.00;98457.88;109579;1251;64082;-74
2023/12/03 00:37:44;;;;;;;80.00;43.20;;;;;;;-2.64;100.00;98463.48;109557;1251;59179;-73
2023/12/03 00:40:11;;;;;;;82.20;43.30;;;;;;;-2.64;100.00;98460.50;109539;1251;59109;-73
2023/12/03 00:42:38;;;;;;;71.80;38.20;;;;;;;-2.65;100.00;98470.96;109614;1251;66756;-73
2023/12/03 00:45:05;;;;;;;76.50;40.80;;;;;;;-2.66;100.00;98474.82;109565;1250;61073;-73
2023/12/03 00:47:32;;;;;;;78.30;41.90;;;;;;;-2.67;100.00;98477.80;109544;1251;64217;-73
2023/12/03 00:49:59;;;;;;;75.50;41.70;;;;;;;-2.69;100.00;98478.88;109548;1251;59222;-73
2023/12/03 00:52:25;;;;;;;73.00;39.30;;;;;;;-2.71;100.00;98479.63;109274;1251;59916;-72
2023/12/03 00:54:52;;;;;;;65.90;37.80;;;;;;;-2.73;100.00;98487.48;109561;1250;66945;-72
2023/12/03 00:57:18;;;;;;;65.70;36.50;;;;;;;-2.75;100.00;98493.79;109572;1250;61102;-73
2023/12/03 00:59:45;;;;;;;58.40;34.80;;;;;;;-2.76;100.00;98497.83;109550;1251;65099;-73
2023/12/03 01:02:12;;;;;;;59.00;33.70;;;;;;;-2.79;100.00;98503.80;109518;1251;58931;-73
2023/12/03 01:04:38;;;;;;;52.00;31.40;;;;;;;-2.81;100.00;98509.92;109592;1251;58975;-73
2023/12/03 01:07:05;;;;;;;49.70;30.20;;;;;;;-2.83;100.00;98519.17;109545;1251;65923;-73
2023/12/03 01:09:32;;;;;;;46.50;30.20;;;;;;;-2.87;100.00;98522.54;108580;1251;1002831;-72
2023/12/03 01:11:58;;;;;;;42.90;27.10;;;;;;;-2.88;100.00;98524.13;108802;1250;1002477;-72
2023/12/03 01:14:25;;;;;;;37.80;24.50;;;;;;;-2.90;100.00;98528.70;109560;1251;59019;-72
2023/12/03 01:16:51;;;;;;;40.70;24.60;;;;;;;-2.92;100.00;98536.39;109594;1251;59015;-73
2023/12/03 01:19:18;;;;;;;38.20;24.20;;;;;;;-2.93;100.00;98543.02;109557;1251;65946;-72
2023/12/03 01:21:45;;;;;;;40.50;24.10;;;;;;;-2.96;100.00;98546.20;109343;1251;60708;-73
2023/12/03 01:24:11;;;;;;;33.80;21.10;;;;;;;-2.97;100.00;98549.53;109564;1251;65403;-73
2023/12/03 01:26:38;;;;;;;32.10;20.70;;;;;;;-3.00;100.00;98557.05;109257;1251;59016;-73
2023/12/03 01:29:05;;;;;;;31.30;18.90;;;;;;;-3.01;100.00;98563.85;109358;1251;59098;-73
2023/12/03 01:31:32;;;;;;;33.40;21.40;;;;;;;-3.03;100.00;98570.30;109594;1251;67200;-73
2023/12/03 01:33:58;;;;;;;36.10;22.60;;;;;;;-3.04;100.00;98571.39;109608;1251;60028;-73
2023/12/03 01:36:25;;;;;;;32.80;20.10;;;;;;;-3.05;100.00;98573.48;109563;1251;65113;-73
2023/12/03 01:38:51;;;;;;;33.10;20.70;;;;;;;-3.07;100.00;98569.53;109544;1251;58982;-72
2023/12/03 01:41:18;;;;;;;34.50;19.90;;;;;;;-3.08;100.00;98574.58;109578;1251;58873;-72
2023/12/03 01:43:50;;;;;;;31.90;20.50;;;;;;;-3.08;100.00;98579.12;109558;1251;67036;-73
2023/12/03 01:46:17;;;;;;;32.20;19.00;;;;;;;-3.10;100.00;98581.74;108782;1251;1003037;-73
2023/12/03 01:48:44;;;;;;;32.20;20.50;;;;;;;-3.10;100.00;98586.80;109586;1251;64967;-73
2023/12/03 01:51:11;;;;;;;28.00;17.80;;;;;;;-3.11;100.00;98587.33;108807;1251;1002170;-73
2023/12/03 01:53:38;;;;;;;29.00;18.40;;;;;;;-3.10;100.00;98591.13;109538;1251;59110;-72
2023/12/03 01:56:06;;;;;;;26.60;18.30;;;;;;;-3.09;100.00;98597.19;109553;1254;67058;-73
2023/12/03 01:58:33;;;;;;;29.20;19.10;;;;;;;-3.10;100.00;98600.51;109611;1251;60048;-73
2023/12/03 02:00:59;;;;;;;23.90;17.20;;;;;;;-3.10;100.00;98603.65;109539;1250;65257;-73
2023/12/03 02:03:26;;;;;;;32.70;20.00;;;;;;;-3.11;100.00;98613.20;109567;1251;59043;-73
2023/12/03 02:06:14;;;;;;;21.30;15.20;;;;;;;-3.12;100.00;98613.23;109599;1251;59120;-73
2023/12/03 02:08:41;;;;;;;22.80;14.60;;;;;;;-3.14;100.00;98613.10;109573;1250;66226;-73
2023/12/03 02:11:08;;;;;;;25.10;17.00;;;;;;;-3.15;100.00;98619.38;109547;1251;61034;-72
2023/12/03 02:13:37;;;;;;;25.60;16.40;;;;;;;-3.16;100.00;98625.29;109564;1251;65059;-73
2023/12/03 02:16:05;;;;;;;23.00;14.20;;;;;;;-3.16;100.00;98631.73;109520;1251;59007;-73
2023/12/03 02:18:35;;;;;;;19.20;14.20;;;;;;;-3.17;100.00;98639.38;109606;1251;59237;-73
2023/12/03 02:21:02;;;;;;;24.50;15.90;;;;;;;-3.19;100.00;98641.33;109561;1250;66986;-74
2023/12/03 02:23:29;;;;;;;23.10;15.60;;;;;;;-3.21;100.00;98645.89;109595;1251;60741;-73
2023/12/03 02:25:56;;;;;;;27.60;17.30;;;;;;;-3.24;100.00;98651.50;109536;1251;65138;-73
2023/12/03 02:28:23;;;;;;;26.00;15.70;;;;;;;-3.26;100.00;98656.74;109529;1251;59005;-73
2023/12/03 02:30:50;;;;;;;20.00;12.90;;;;;;;-3.30;100.00;98660.44;109550;1251;59813;-73
2023/12/03 02:33:17;;;;;;;21.20;14.20;;;;;;;-3.35;100.00;98669.38;109585;1251;67011;-73
2023/12/03 02:35:44;;;;;;;22.30;15.00;;;;;;;-3.36;100.00;98673.41;109603;1251;61014;-73
2023/12/03 02:38:10;;;;;;;25.90;16.90;;;;;;;-3.39;100.00;98672.92;109549;1251;64985;-73
2023/12/03 02:40:38;;;;;;;25.20;16.90;;;;;;;-3.41;100.00;98679.20;109551;1251;58946;-73
2023/12/03 02:43:05;;;;;;;33.10;21.00;;;;;;;-3.43;100.00;98682.53;109423;1251;59093;-73
2023/12/03 02:45:32;;;;;;;29.20;21.00;;;;;;;-3.44;100.00;98688.98;109543;1251;75825;-72
2023/12/03 02:47:59;;;;;;;30.40;20.60;;;;;;;-3.44;100.00;98693.69;109585;1251;60146;-73
2023/12/03 02:50:26;;;;;;;36.80;24.00;;;;;;;-3.46;100.00;98703.61;109570;1251;64949;-73
2023/12/03 02:52:52;;;;;;;36.10;25.70;;;;;;;-3.48;100.00;98709.55;109512;1251;58998;-73
2023/12/03 02:55:19;;;;;;;41.30;25.90;;;;;;;-3.49;100.00;98712.34;109596;1251;59038;-73
2023/12/03 02:57:46;;;;;;;42.70;28.10;;;;;;;-3.49;100.00;98717.04;109549;1251;66042;-73
2023/12/03 03:00:34;;;;;;;41.30;27.40;;;;;;;-3.50;100.00;98720.86;109562;1250;61511;-73
2023/12/03 03:03:01;;;;;;;39.60;25.40;;;;;;;-3.51;100.00;98721.92;109530;1251;65054;-73
2023/12/03 03:05:28;;;;;;;37.70;26.40;;;;;;;-3.53;100.00;98718.64;109517;1255;58962;-74
2023/12/03 03:07:55;;;;;;;35.40;25.00;;;;;;;-3.54;100.00;98723.69;109547;1251;59225;-74
2023/12/03 03:10:21;;;;;;;31.00;22.10;;;;;;;-3.55;100.00;98724.74;109580;1251;65904;-72
2023/12/03 03:12:48;;;;;;;35.30;23.90;;;;;;;-3.54;100.00;98728.39;109556;1251;61054;-73
2023/12/03 03:15:14;;;;;;;36.60;24.40;;;;;;;-3.54;100.00;98728.55;109388;1251;64055;-72
2023/12/03 03:17:41;;;;;;;33.00;21.40;;;;;;;-3.53;100.00;98730.80;109543;1251;59139;-73
2023/12/03 03:20:08;;;;;;;30.40;19.80;;;;;;;-3.53;100.00;98732.54;109580;1251;59020;-72
2023/12/03 03:22:34;;;;;;;33.50;23.00;;;;;;;-3.51;100.00;98733.21;109573;1251;66268;-72
2023/12/03 03:25:03;;;;;;;31.50;21.80;;;;;;;-3.52;100.00;98731.84;109577;1251;61071;-73
2023/12/03 03:27:30;;;;;;;35.30;23.80;;;;;;;-3.52;100.00;98734.95;109363;1251;65083;-72
2023/12/03 03:29:56;;;;;;;33.00;23.40;;;;;;;-3.51;100.00;98736.50;109571;1251;59674;-72
2023/12/03 03:32:23;;;;;;;32.10;23.20;;;;;;;-3.50;100.00;98746.22;109511;1251;59073;-73
2023/12/03 03:34:49;;;;;;;37.00;25.20;;;;;;;-3.52;100.00;98752.67;109249;1250;66602;-71
2023/12/03 03:37:16;;;;;;;31.70;21.20;;;;;;;-3.54;100.00;98756.86;109558;1254;60045;-71
2023/12/03 03:39:42;;;;;;;30.30;20.60;;;;;;;-3.56;100.00;98762.80;109538;1251;64096;-72
2023/12/03 03:42:09;;;;;;;24.70;17.50;;;;;;;-3.58;100.00;98769.77;109543;1254;59088;-72
2023/12/03 03:44:37;;;;;;;25.60;18.50;;;;;;;-3.60;100.00;98772.22;108627;1251;1002222;-72
2023/12/03 03:47:03;;;;;;;23.60;17.10;;;;;;;-3.60;100.00;98776.56;109603;1251;67221;-72
2023/12/03 03:49:30;;;;;;;19.90;14.70;;;;;;;-3.61;100.00;98772.40;109530;1251;61455;-72
2023/12/03 03:51:57;;;;;;;25.10;17.40;;;;;;;-3.62;100.00;98770.33;108775;1251;1003426;-72
2023/12/03 03:54:23;;;;;;;20.10;13.50;;;;;;;-3.64;100.00;98770.55;109566;1251;58943;-72
2023/12/03 03:56:50;;;;;;;23.40;15.10;;;;;;;-3.66;100.00;98770.73;109449;1251;154797;-72
2023/12/03 03:59:17;;;;;;;26.20;17.50;;;;;;;-3.66;100.00;98772.48;109559;1251;65894;-72
2023/12/03 04:01:44;;;;;;;21.90;15.90;;;;;;;-3.67;100.00;98772.85;109561;1251;61599;-72
2023/12/03 04:04:11;;;;;;;26.00;18.60;;;;;;;-3.70;100.00;98772.02;109564;1251;63784;-72
2023/12/03 04:06:40;;;;;;;24.60;17.20;;;;;;;-3.70;100.00;98772.55;109574;1255;59064;-72
2023/12/03 04:09:09;;;;;;;20.60;14.40;;;;;;;-3.71;100.00;98775.50;109620;1251;59142;-73
2023/12/03 04:11:43;;;;;;;24.60;16.90;;;;;;;-3.71;100.00;98779.49;108814;1251;1002191;-73
2023/12/03 04:14:16;;;;;;;23.30;17.60;;;;;;;-3.71;100.00;98782.27;109555;1251;61017;-73
2023/12/03 04:16:43;;;;;;;23.50;18.10;;;;;;;-3.71;100.00;98780.36;109578;1251;64481;-73
2023/12/03 04:19:13;;;;;;;21.70;15.10;;;;;;;-3.72;100.00;98781.22;109385;1251;59053;-73
2023/12/03 04:21:40;;;;;;;20.20;13.80;;;;;;;-3.73;100.00;98785.95;109542;1251;59045;-73
2023/12/03 04:24:07;;;;;;;22.30;16.70;;;;;;;-3.74;100.00;98791.51;109585;1250;74942;-71
2023/12/03 04:26:33;;;;;;;20.00;15.80;;;;;;;-3.77;100.00;98789.80;109613;1251;61072;-72
2023/12/03 04:29:00;;;;;;;19.90;13.90;;;;;;;-3.78;100.00;98794.33;109553;1251;63986;-72
2023/12/03 04:31:26;;;;;;;20.80;14.80;;;;;;;-3.79;100.00;98799.03;109531;1251;58931;-72
2023/12/03 04:33:55;;;;;;;18.90;13.60;;;;;;;-3.79;100.00;98794.52;109559;1251;58970;-71
2023/12/03 04:36:23;;;;;;;19.70;13.90;;;;;;;-3.78;100.00;98795.20;109573;1251;67030;-72
2023/12/03 04:38:54;;;;;;;18.00;11.70;;;;;;;-3.78;100.00;98788.78;109606;1251;61178;-72
2023/12/03 04:41:21;;;;;;;18.00;12.50;;;;;;;-3.79;100.00;98790.86;109324;1251;63904;-72
2023/12/03 04:43:48;;;;;;;16.60;11.70;;;;;;;-3.80;100.00;98790.36;109516;1251;59106;-72
2023/12/03 04:46:15;;;;;;;18.40;11.90;;;;;;;-3.80;100.00;98793.83;108801;1251;1002865;-73
2023/12/03 04:48:42;;;;;;;13.80;10.10;;;;;;;-3.80;100.00;98795.39;108831;1251;1002199;-72
2023/12/03 04:51:10;;;;;;;14.20;11.20;;;;;;;-3.79;100.00;98801.45;109563;1251;60349;-72
2023/12/03 04:53:37;;;;;;;15.30;10.50;;;;;;;-3.80;100.00;98802.51;109572;1251;65343;-73
2023/12/03 04:56:04;;;;;;;15.30;10.40;;;;;;;-3.79;100.00;98804.23;109515;1251;58962;-73
2023/12/03 04:58:31;;;;;;;13.00;9.40;;;;;;;-3.80;100.00;98805.45;109579;1251;58974;-73
2023/12/03 05:00:58;;;;;;;16.20;11.60;;;;;;;-3.79;100.00;98809.79;109563;1251;66890;-73
2023/12/03 05:03:24;;;;;;;15.20;10.30;;;;;;;-3.79;100.00;98814.83;109556;1251;60147;-73
2023/12/03 05:05:51;;;;;;;15.90;10.60;;;;;;;-3.79;100.00;98817.27;109539;1251;63723;-73
2023/12/03 05:08:18;;;;;;;15.90;10.50;;;;;;;-3.78;100.00;98822.27;109556;1254;58943;-73
2023/12/03 05:10:44;;;;;;;15.60;10.70;;;;;;;-3.77;100.00;98825.20;109538;1251;58885;-73
2023/12/03 05:13:11;;;;;;;17.70;11.40;;;;;;;-3.78;100.00;98825.05;109541;1250;66057;-72
2023/12/03 05:15:38;;;;;;;14.30;10.40;;;;;;;-3.78;100.00;98828.52;109578;1251;60349;-73
2023/12/03 05:18:04;;;;;;;14.80;10.30;;;;;;;-3.78;100.00;98832.69;109569;1251;64036;-73
2023/12/03 05:20:32;;;;;;;20.00;12.60;;;;;;;-3.76;100.00;98833.17;108761;1253;1002975;-72
2023/12/03 05:22:58;;;;;;;14.70;10.90;;;;;;;-3.74;100.00;98836.30;109515;1250;59013;-72
2023/12/03 05:25:25;;;;;;;17.50;12.00;;;;;;;-3.75;100.00;98840.63;109562;1251;65666;-73
2023/12/03 05:27:52;;;;;;;16.70;11.60;;;;;;;-3.75;100.00;98848.10;109515;1251;60971;-72
2023/12/03 05:30:18;;;;;;;17.30;12.20;;;;;;;-3.75;100.00;98851.56;108714;1251;1002793;-74
2023/12/03 05:32:45;;;;;;;17.50;12.50;;;;;;;-3.73;100.00;98851.91;108775;1253;1003060;-73
2023/12/03 05:35:12;;;;;;;16.40;10.90;;;;;;;-3.71;100.00;98853.98;109568;1254;59015;-74
2023/12/03 05:37:39;;;;;;;17.30;12.40;;;;;;;-3.72;100.00;98856.40;109570;1250;67038;-73
2023/12/03 05:40:08;;;;;;;13.00;9.30;;;;;;;-3.71;100.00;98860.05;108768;1251;1002953;-73
2023/12/03 05:42:35;;;;;;;16.50;10.90;;;;;;;-3.72;100.00;98862.48;109539;1251;65059;-72
2023/12/03 05:45:03;;;;;;;14.00;10.70;;;;;;;-3.72;100.00;98866.98;108722;1251;1002201;-73
2023/12/03 05:47:31;;;;;;;16.00;10.80;;;;;;;-3.71;100.00;98872.55;109553;1251;59094;-72
2023/12/03 05:50:00;;;;;;;16.00;9.80;;;;;;;-3.70;100.00;98877.56;109568;1251;65965;-72
2023/12/03 05:52:28;;;;;;;13.10;9.70;;;;;;;-3.69;100.00;98878.76;109548;1251;60155;-73
2023/12/03 05:54:55;;;;;;;14.70;9.70;;;;;;;-3.68;100.00;98880.31;109373;1251;64035;-73
2023/12/03 05:57:21;;;;;;;13.80;8.60;;;;;;;-3.67;100.00;98882.91;109339;1251;59055;-73
2023/12/03 05:59:49;;;;;;;13.90;10.00;;;;;;;-3.66;100.00;98882.39;109555;1256;58873;-72
2023/12/03 06:02:16;;;;;;;12.40;8.90;;;;;;;-3.65;100.00;98885.15;109540;1255;67332;-73
2023/12/03 06:04:43;;;;;;;13.40;9.90;;;;;;;-3.63;100.00;98886.86;109564;1254;61003;-74
2023/12/03 06:07:10;;;;;;;17.60;11.50;;;;;;;-3.61;100.00;98892.73;108492;1250;1002448;-73
2023/12/03 06:09:36;;;;;;;13.30;9.10;;;;;;;-3.60;100.00;98891.51;108837;1251;1003003;-74
2023/12/03 06:12:03;;;;;;;15.00;9.90;;;;;;;-3.58;100.00;98894.26;109552;1251;59325;-73
2023/12/03 06:14:31;;;;;;;15.80;11.50;;;;;;;-3.56;100.00;98900.30;109543;1251;67615;-73
2023/12/03 06:16:58;;;;;;;15.30;10.90;;;;;;;-3.55;100.00;98904.98;109279;1251;61104;-73
2023/12/03 06:19:24;;;;;;;14.90;10.70;;;;;;;-3.53;100.00;98906.71;109548;1251;65157;-73
2023/12/03 06:21:51;;;;;;;14.90;10.10;;;;;;;-3.51;100.00;98909.28;109516;1251;59087;-73
2023/12/03 06:24:19;;;;;;;14.70;10.30;;;;;;;-3.49;100.00;98907.54;109559;1251;59416;-73
2023/12/03 06:26:45;;;;;;;13.10;8.90;;;;;;;-3.48;100.00;98912.73;109569;1251;67300;-72
2023/12/03 06:29:12;;;;;;;13.30;9.40;;;;;;;-3.47;100.00;98914.63;109564;1251;61073;-74
2023/12/03 06:31:39;;;;;;;13.00;9.00;;;;;;;-3.46;100.00;98913.22;109512;1251;64034;-73
2023/12/03 06:34:05;;;;;;;13.10;8.60;;;;;;;-3.44;100.00;98912.69;109550;1251;59010;-72
2023/12/03 06:36:32;;;;;;;14.20;10.10;;;;;;;-3.42;100.00;98915.27;109530;1251;58966;-72
2023/12/03 06:38:58;;;;;;;14.30;9.40;;;;;;;-3.40;100.00;98919.40;109534;1251;67231;-73
2023/12/03 06:41:25;;;;;;;14.10;9.80;;;;;;;-3.38;100.00;98926.14;109525;1251;60198;-72
2023/12/03 06:43:52;;;;;;;12.60;9.60;;;;;;;-3.35;100.00;98927.16;109584;1251;64082;-72
2023/12/03 06:46:19;;;;;;;13.20;8.40;;;;;;;-3.33;100.00;98931.48;109575;1251;59064;-73
2023/12/03 06:48:45;;;;;;;13.60;10.30;;;;;;;-3.31;100.00;98934.93;109526;1251;58919;-73
2023/12/03 06:51:12;;;;;;;14.30;9.60;;;;;;;-3.29;100.00;98937.87;109565;1251;65969;-73
2023/12/03 06:53:38;;;;;;;17.90;10.80;;;;;;;-3.26;100.00;98940.95;109573;1251;61124;-73
2023/12/03 06:56:08;;;;;;;16.90;11.20;;;;;;;-3.23;100.00;98946.98;108790;1251;1002555;-73
2023/12/03 06:58:34;;;;;;;12.90;8.60;;;;;;;-3.20;100.00;98946.43;109529;1251;58935;-72
2023/12/03 07:01:01;;;;;;;12.30;9.10;;;;;;;-3.18;100.00;98950.58;109525;1251;59102;-72
2023/12/03 07:03:28;;;;;;;18.60;11.60;;;;;;;-3.16;100.00;98955.42;109247;1251;66878;-74
2023/12/03 07:05:56;;;;;;;16.10;11.40;;;;;;;-3.14;100.00;98958.52;109596;1251;61396;-72
2023/12/03 07:08:22;;;;;;;15.80;10.30;;;;;;;-3.10;100.00;98957.78;109566;1251;63733;-73
2023/12/03 07:10:49;;;;;;;14.60;10.30;;;;;;;-3.06;100.00;98956.15;109486;1251;58978;-73
2023/12/03 07:13:16;;;;;;;17.90;11.70;;;;;;;-3.04;100.00;98956.13;109563;1251;58882;-72
2023/12/03 07:15:42;;;;;;;17.20;11.00;;;;;;;-3.03;100.00;98957.16;108812;1251;1002999;-73
2023/12/03 07:18:09;;;;;;;19.30;12.20;;;;;;;-3.01;100.00;98958.54;109348;1251;60887;-72
2023/12/03 07:20:35;;;;;;;16.10;11.90;;;;;;;-2.98;100.00;98961.45;109568;1251;65048;-72
2023/12/03 07:23:02;;;;;;;16.80;11.40;;;;;;;-2.95;100.00;98969.23;109534;1251;59025;-73
2023/12/03 07:25:29;;;;;;;14.30;9.40;;;;;;;-2.90;100.00;98973.00;109533;1251;58892;-74
2023/12/03 07:27:55;;;;;;;14.60;11.00;;;;;;;-2.87;100.00;98970.88;109397;1251;65979;-74
2023/12/03 07:30:24;;;;;;;17.40;12.60;;;;;;;-2.84;100.00;98969.79;109575;1251;60052;-73
2023/12/03 07:32:51;;;;;;;15.30;10.80;;;;;;;-2.81;100.00;98972.35;109528;1251;65098;-73
2023/12/03 07:35:18;;;;;;;17.30;12.70;;;;;;;-2.79;100.00;98980.50;109539;1251;59056;-72
2023/12/03 07:37:44;;;;;;;18.10;13.00;;;;;;;-2.74;100.00;98983.37;109563;1251;58960;-72
2023/12/03 07:40:11;;;;;;;18.30;12.90;;;;;;;-2.68;100.00;98978.60;109535;1251;66093;-73
2023/12/03 07:42:40;;;;;;;15.90;11.70;;;;;;;-2.64;100.00;98982.38;109363;1251;61176;-73
2023/12/03 07:45:07;;;;;;;15.70;11.20;;;;;;;-2.60;100.00;98989.11;109582;1251;64265;-73
2023/12/03 07:47:34;;;;;;;18.50;12.50;;;;;;;-2.56;100.00;98986.09;109375;1251;59072;-72
2023/12/03 07:50:01;;;;;;;15.10;11.00;;;;;;;-2.50;100.00;98987.91;109551;1251;58910;-73
2023/12/03 07:52:27;;;;;;;15.70;11.00;;;;;;;-2.45;100.00;98992.71;109552;1250;67011;-73
2023/12/03 07:54:54;;;;;;;17.00;10.80;;;;;;;-2.42;100.00;98999.10;109551;1251;61083;-72
2023/12/03 07:57:21;;;;;;;16.20;10.90;;;;;;;-2.39;100.00;98999.41;109537;1251;64292;-73
2023/12/03 07:59:47;;;;;;;16.30;12.00;;;;;;;-2.35;100.00;99001.27;109561;1251;60551;-73
2023/12/03 08:02:14;;;;;;;14.90;10.80;;;;;;;-2.30;100.00;99010.77;109530;1251;59364;-73
2023/12/03 08:04:41;;;;;;;15.00;10.70;;;;;;;-2.27;100.00;99016.81;109569;1251;66981;-74
2023/12/03 08:07:07;;;;;;;15.50;10.80;;;;;;;-2.24;100.00;99021.28;109554;1251;61024;-72
2023/12/03 08:09:34;;;;;;;16.20;11.00;;;;;;;-2.20;100.00;99024.71;108008;1251;1003047;-73
2023/12/03 08:12:00;;;;;;;15.50;10.90;;;;;;;-2.16;100.00;99025.35;108831;1251;1002282;-73
2023/12/03 08:14:27;;;;;;;13.50;10.60;;;;;;;-2.11;100.00;99029.98;109569;1251;59000;-73
2023/12/03 08:16:54;;;;;;;14.50;10.30;;;;;;;-2.06;100.00;99028.86;109374;1251;67156;-73
2023/12/03 08:19:20;;;;;;;14.80;9.40;;;;;;;-2.04;100.00;99030.91;109573;1251;59752;-73
2023/12/03 08:21:47;;;;;;;12.10;8.80;;;;;;;-2.05;100.00;99035.80;109576;1251;64077;-73
2023/12/03 08:24:14;;;;;;;11.20;9.50;;;;;;;-2.03;100.00;99036.98;109298;1251;58989;-72
2023/12/03 08:26:41;;;;;;;13.10;9.50;;;;;;;-1.99;100.00;99039.70;109230;1251;58977;-73
2023/12/03 08:29:29;;;;;;;12.70;10.20;;;;;;;-1.96;100.00;99043.31;109255;1256;67707;-73
2023/12/03 08:31:57;;;;;;;14.30;10.80;;;;;;;-1.90;100.00;99044.96;109096;1255;59950;-73
2023/12/03 08:34:23;;;;;;;14.60;9.80;;;;;;;-1.83;100.00;99051.48;109213;1256;65257;-72
2023/12/03 08:36:50;;;;;;;14.00;10.90;;;;;;;-1.79;100.00;99058.03;109230;1256;59528;-74
2023/12/03 08:39:18;;;;;;;16.40;11.10;;;;;;;-1.75;100.00;99061.63;108909;1256;59005;-71
2023/12/03 08:41:45;;;;;;;14.90;11.70;;;;;;;-1.71;100.00;99066.09;109238;1256;67262;-72
2023/12/03 08:44:12;;;;;;;14.10;10.50;;;;;;;-1.67;100.00;99071.25;109224;1256;60036;-73
2023/12/03 08:46:39;;;;;;;15.10;11.70;;;;;;;-1.68;100.00;99079.80;109264;1256;64822;-72
2023/12/03 08:49:05;;;;;;;15.50;12.00;;;;;;;-1.65;100.00;99083.06;109226;1256;59106;-72
2023/12/03 08:51:32;;;;;;;16.00;11.00;;;;;;;-1.61;100.00;99086.64;108903;1256;59102;-73
2023/12/03 08:53:59;;;;;;;16.40;12.10;;;;;;;-1.58;100.00;99092.51;109014;1254;66975;-74
2023/12/03 08:56:26;;;;;;;17.20;11.40;;;;;;;-1.60;100.00;99095.15;109261;1256;60898;-72
2023/12/03 08:58:53;;;;;;;15.40;10.90;;;;;;;-1.63;100.00;99095.73;109243;1256;64113;-76
2023/12/03 09:01:20;;;;;;;14.00;10.20;;;;;;;-1.69;100.00;99096.54;109227;1255;59056;-73
2023/12/03 09:03:48;;;;;;;14.20;10.30;;;;;;;-1.76;100.00;99098.73;109463;1251;58889;-73
2023/12/03 09:06:15;;;;;;;17.00;10.80;;;;;;;-1.79;100.00;99101.58;109546;1251;66043;-72
2023/12/03 09:08:42;;;;;;;17.50;12.30;;;;;;;-1.80;100.00;99107.14;109605;1251;59768;-72
2023/12/03 09:11:10;;;;;;;17.30;11.50;;;;;;;-1.79;100.00;99106.09;109604;1251;63979;-74
2023/12/03 09:13:36;;;;;;;15.50;11.80;;;;;;;-1.75;100.00;99108.46;109508;1251;59053;-72
2023/12/03 09:16:03;;;;;;;17.20;12.50;;;;;;;-1.69;100.00;99109.42;109331;1251;59170;-73
2023/12/03 09:18:30;;;;;;;17.70;12.60;;;;;;;-1.61;100.00;99114.00;109552;1251;67404;-73
2023/12/03 09:20:57;;;;;;;17.20;13.60;;;;;;;-1.57;100.00;99113.56;109608;1250;61067;-73
2023/12/03 09:23:23;;;;;;;18.30;12.10;;;;;;;-1.49;100.00;99116.94;109539;1251;63973;-73
2023/12/03 09:25:50;;;;;;;16.80;13.40;;;;;;;-1.39;100.00;99120.95;109553;1251;58962;-73
2023/12/03 09:28:17;;;;;;;18.80;13.20;;;;;;;-1.26;100.00;99122.83;109594;1251;58937;-73
2023/12/03 09:30:43;;;;;;;18.30;13.20;;;;;;;-1.16;100.00;99124.58;109351;1251;66209;-73
2023/12/03 09:33:10;;;;;;;18.90;14.70;;;;;;;-1.11;100.00;99126.75;109592;1251;61093;-72
2023/12/03 09:35:37;;;;;;;17.80;13.60;;;;;;;-1.05;100.00;99131.71;109559;1251;63807;-74
2023/12/03 09:38:03;;;;;;;18.70;14.40;;;;;;;-1.01;100.00;99134.95;109536;1251;58904;-72
2023/12/03 09:40:30;;;;;;;16.70;13.70;;;;;;;-1.01;100.00;99134.23;109526;1251;59050;-72
2023/12/03 09:43:01;;;;;;;18.00;13.60;;;;;;;-0.99;100.00;99139.45;109324;1250;67121;-73
2023/12/03 09:45:28;;;;;;;18.40;14.50;;;;;;;-0.96;100.00;99141.31;109564;1251;61256;-73
2023/12/03 09:48:00;;;;;;;16.90;13.40;;;;;;;-0.91;100.00;99142.27;109549;1251;64996;-74
2023/12/03 09:50:34;;;;;;;18.10;13.30;;;;;;;-0.87;100.00;99144.29;109537;1251;59307;-74
2023/12/03 09:53:02;;;;;;;18.10;14.60;;;;;;;-0.82;100.00;99147.17;109581;1251;59015;-73
2023/12/03 09:55:31;;;;;;;20.40;14.70;;;;;;;-0.78;100.00;99147.27;109574;1251;66698;-72
2023/12/03 09:57:59;;;;;;;19.50;13.60;;;;;;;-0.74;100.00;99148.94;109566;1251;60713;-72
2023/12/03 10:00:28;;;;;;;19.30;13.70;;;;;;;-0.76;100.00;99151.76;109606;1251;64045;-74
2023/12/03 10:02:55;;;;;;;18.60;13.40;;;;;;;-0.80;100.00;99156.36;109405;1251;59471;-73
2023/12/03 10:05:22;;;;;;;19.40;13.10;;;;;;;-0.80;100.00;99160.05;109328;1251;59470;-73
2023/12/03 10:07:49;;;;;;;19.10;15.00;;;;;;;-0.81;100.00;99160.23;109575;1250;67024;-74
2023/12/03 10:10:19;;;;;;;18.30;13.50;;;;;;;-0.80;100.00;99160.90;109571;1251;59731;-73
2023/12/03 10:12:47;;;;;;;23.40;15.40;;;;;;;-0.71;100.00;99163.00;109552;1251;65089;-73
2023/12/03 10:15:14;;;;;;;19.40;14.50;;;;;;;-0.62;100.00;99167.55;109554;1251;59164;-73
2023/12/03 10:17:41;;;;;;;20.10;15.10;;;;;;;-0.55;100.00;99174.22;109623;1251;58944;-72
2023/12/03 10:20:26;;;;;;;20.90;15.20;;;;;;;-0.48;100.00;99174.44;109552;1253;67070;-73
2023/12/03 10:22:58;;;;;;;36.30;20.90;;;;;;;-0.46;100.00;99175.61;109542;1251;68446;-73
2023/12/03 10:25:32;;;;;;;20.10;15.30;;;;;;;-0.38;100.00;99176.84;109560;1251;65015;-72
2023/12/03 10:28:01;;;;;;;22.10;16.60;;;;;;;-0.19;100.00;99178.57;109501;1251;59016;-76
2023/12/03 10:30:29;;;;;;;16.40;12.60;;;;;;;-0.07;100.00;99180.75;109606;1251;59006;-75
2023/12/03 10:32:56;;;;;;;14.90;12.30;;;;;;;-0.04;100.00;99180.70;109551;1251;66006;-76
2023/12/03 10:35:24;;;;;;;13.70;10.70;;;;;;;-0.01;100.00;99181.51;109548;1250;61288;-74
2023/12/03 10:37:51;;;;;;;11.60;10.20;;;;;;;0.05;100.00;99181.39;109558;1251;63686;-75
2023/12/03 10:40:19;;;;;;;13.60;10.30;;;;;;;0.12;100.00;99185.44;109531;1251;59392;-74
2023/12/03 10:42:47;;;;;;;12.40;9.40;;;;;;;0.21;100.00;99187.85;109597;1251;59185;-75
2023/12/03 10:45:15;;;;;;;15.40;12.50;;;;;;;0.22;100.00;99188.88;109597;1251;67265;-75
2023/12/03 10:47:43;;;;;;;14.90;12.60;;;;;;;0.22;100.00;99193.60;109562;1251;59710;-74
2023/12/03 10:50:11;;;;;;;16.60;13.10;;;;;;;0.21;100.00;99196.76;109598;1251;64107;-74
2023/12/03 10:52:39;;;;;;;16.90;13.00;;;;;;;0.22;100.00;99196.20;109594;1251;59160;-75
2023/12/03 10:55:08;;;;;;;16.70;13.00;;;;;;;0.20;100.00;99202.20;109601;1251;59036;-75
2023/12/03 10:58:02;;;;;;;16.50;11.50;;;;;;;0.09;100.00;99204.36;109618;1251;67232;-75
2023/12/03 11:00:38;;;;;;;12.60;10.40;;;;;;;-0.09;100.00;99205.96;109306;1250;59928;-75
2023/12/03 11:03:14;;;;;;;16.90;10.80;;;;;;;-0.20;100.00;99208.63;109564;1251;65056;-74